Time;durP1;ratioP1;P1;durP2;ratioP2;P2;SDS_P1;SDS_P2;PMS_P1;PMS_P2;Temp;Humidity;BMP_temperature;BMP_pressure;BME280_temperature;BME280_humidity;BME280_pressure;Samples;Min_cycle;Max_cycle;Signal;HPM_P1;HPM_P2
2022/03/06 00:01:50;;;;;;;;;73.75;57.25;;;;;4.90;53.91;99417.94;4954612;28;8894;-83
2022/03/06 00:04:20;;;;;;;;;72.50;57.75;;;;;4.91;53.55;99422.25;4954726;28;9005;-82
2022/03/06 00:06:49;;;;;;;;;75.75;60.00;;;;;4.84;53.98;99416.09;4925777;28;8865;-82
2022/03/06 00:09:18;;;;;;;;;76.00;57.75;;;;;4.82;54.04;99410.03;4972618;28;8875;-84
2022/03/06 00:11:48;;;;;;;;;72.75;59.25;;;;;4.75;54.54;99415.06;4955406;28;8832;-83
2022/03/06 00:14:17;;;;;;;;;69.00;57.00;;;;;4.88;54.24;99428.25;4971104;28;8876;-82
2022/03/06 00:16:46;;;;;;;;;71.50;59.50;;;;;4.83;54.49;99421.22;4986947;28;8883;-83
2022/03/06 00:19:17;;;;;;;;;73.67;60.00;;;;;4.83;54.72;99422.09;4970634;28;8880;-81
2022/03/06 00:21:47;;;;;;;;;68.25;57.00;;;;;4.84;54.63;99405.78;4952581;28;8963;-82
2022/03/06 00:24:15;;;;;;;;;74.75;59.00;;;;;4.88;54.65;99410.16;4943290;28;8877;-84
2022/03/06 00:26:44;;;;;;;;;74.00;56.75;;;;;4.93;54.36;99412.81;4938947;28;8872;-85
2022/03/06 00:29:13;;;;;;;;;67.50;54.50;;;;;4.84;55.02;99410.94;5007613;28;8978;-85
2022/03/06 00:31:44;;;;;;;;;65.25;52.75;;;;;4.95;54.92;99411.13;4979353;28;8876;-85
2022/03/06 00:34:12;;;;;;;;;71.50;59.50;;;;;4.81;55.59;99407.41;4999161;28;8890;-84
2022/03/06 00:36:43;;;;;;;;;70.75;56.75;;;;;4.71;55.98;99411.53;5013746;28;8862;-85
2022/03/06 00:39:14;;;;;;;;;71.50;59.25;;;;;4.77;55.85;99408.19;5000389;28;8862;-83
2022/03/06 00:41:43;;;;;;;;;68.75;55.50;;;;;4.73;55.76;99406.41;5020174;28;8854;-83
2022/03/06 00:44:12;;;;;;;;;72.75;57.00;;;;;4.77;55.79;99403.91;4997785;28;8862;-85
2022/03/06 00:46:42;;;;;;;;;69.00;53.25;;;;;4.79;56.01;99406.50;4992581;28;8949;-83
2022/03/06 00:49:11;;;;;;;;;66.25;53.25;;;;;4.82;55.87;99396.22;4995460;28;8869;-85
2022/03/06 00:51:40;;;;;;;;;73.50;58.25;;;;;4.79;55.82;99407.38;5011902;28;8850;-83
2022/03/06 00:54:10;;;;;;;;;70.00;55.50;;;;;4.81;56.03;99392.78;5013244;28;8860;-84
2022/03/06 00:56:39;;;;;;;;;76.50;56.00;;;;;4.72;56.60;99394.31;5030357;28;8869;-85
2022/03/06 00:59:07;;;;;;;;;68.00;56.25;;;;;4.77;56.38;99400.44;5014829;28;9625;-85
2022/03/06 01:01:36;;;;;;;;;68.25;54.25;;;;;4.87;56.16;99395.47;5014276;28;8852;-83
2022/03/06 01:04:06;;;;;;;;;71.25;57.00;;;;;4.85;56.06;99396.31;4997154;28;8848;-86
2022/03/06 01:06:35;;;;;;;;;73.00;59.75;;;;;4.73;56.44;99385.75;4997544;28;8929;-84
2022/03/06 01:09:05;;;;;;;;;73.25;54.25;;;;;4.76;56.71;99389.22;4997655;28;8938;-84
2022/03/06 01:11:36;;;;;;;;;75.75;59.25;;;;;4.69;56.79;99390.81;5013999;28;8854;-84
2022/03/06 01:14:05;;;;;;;;;75.00;60.25;;;;;4.72;57.08;99392.59;4997743;28;8982;-84
2022/03/06 01:16:34;;;;;;;;;76.00;62.00;;;;;4.82;56.62;99384.22;5013932;28;8853;-85
2022/03/06 01:19:04;;;;;;;;;71.25;55.50;;;;;4.87;56.21;99390.31;5013750;28;8998;-84
2022/03/06 01:21:33;;;;;;;;;76.00;58.50;;;;;4.92;56.73;99384.38;4997155;28;8868;-84
2022/03/06 01:24:02;;;;;;;;;73.75;55.75;;;;;4.91;56.58;99385.22;4997333;28;8969;-83
2022/03/06 01:26:30;;;;;;;;;68.50;56.50;;;;;4.85;57.18;99391.13;5013689;28;8872;-83
2022/03/06 01:29:01;;;;;;;;;67.50;54.50;;;;;4.97;56.71;99390.50;4997928;28;8880;-83
2022/03/06 01:31:30;;;;;;;;;71.00;58.25;;;;;4.91;56.92;99382.63;5011323;28;8854;-84
2022/03/06 01:34:00;;;;;;;;;69.25;54.50;;;;;4.93;56.80;99380.94;4995000;28;8968;-84
2022/03/06 01:36:30;;;;;;;;;72.75;53.25;;;;;4.88;57.12;99368.81;4995041;28;8850;-84
2022/03/06 01:38:59;;;;;;;;;66.50;53.75;;;;;4.79;57.11;99384.13;4996470;28;8855;-84
2022/03/06 01:41:28;;;;;;;;;73.25;57.75;;;;;4.86;57.36;99374.81;4995903;28;8960;-84
2022/03/06 01:43:57;;;;;;;;;68.50;55.00;;;;;4.83;57.22;99377.31;4995158;28;8857;-84
2022/03/06 01:46:27;;;;;;;;;66.50;54.00;;;;;4.63;58.01;99377.78;4995737;28;8868;-83
2022/03/06 01:48:56;;;;;;;;;72.75;57.75;;;;;4.81;57.36;99377.28;4994690;28;8866;-83
2022/03/06 01:51:24;;;;;;;;;61.25;51.75;;;;;4.78;57.37;99378.94;4999686;28;10101;-83
2022/03/06 01:53:53;;;;;;;;;68.75;54.00;;;;;4.88;57.25;99373.97;5018720;28;8882;-84
2022/03/06 01:56:22;;;;;;;;;71.00;58.50;;;;;5.03;56.82;99369.97;4994393;28;8870;-84
2022/03/06 01:58:52;;;;;;;;;70.50;56.00;;;;;5.16;56.27;99371.94;4994515;28;8899;-86
2022/03/06 02:01:21;;;;;;;;;78.50;56.00;;;;;5.23;56.20;99362.56;5010131;28;8870;-84
2022/03/06 02:03:52;;;;;;;;;68.00;55.25;;;;;5.25;56.00;99363.44;4994316;28;8888;-84
2022/03/06 02:06:21;;;;;;;;;66.50;51.50;;;;;5.36;55.37;99356.75;4994138;28;8972;-82
2022/03/06 02:08:50;;;;;;;;;70.50;57.00;;;;;5.33;55.28;99359.31;5011051;28;8874;-85
2022/03/06 02:11:19;;;;;;;;;63.25;52.25;;;;;5.34;55.38;99355.00;4996164;28;8867;-84
2022/03/06 02:13:48;;;;;;;;;65.25;49.75;;;;;5.22;55.34;99355.66;5021079;28;9016;-82
2022/03/06 02:16:17;;;;;;;;;73.25;53.00;;;;;5.22;54.69;99355.66;5015410;28;8870;-82
2022/03/06 02:18:46;;;;;;;;;65.25;53.25;;;;;5.14;54.99;99354.63;4994419;28;8904;-83
2022/03/06 02:21:16;;;;;;;;;62.50;49.50;;;;;4.94;55.41;99349.13;4994190;28;8854;-83
2022/03/06 02:23:47;;;;;;;;;64.50;50.50;;;;;4.67;55.88;99352.91;4980593;28;8848;-84
2022/03/06 02:26:16;;;;;;;;;63.25;51.50;;;;;4.64;55.23;99351.13;5013072;28;9169;-83
2022/03/06 02:28:45;;;;;;;;;56.75;47.25;;;;;4.64;55.26;99345.94;4998155;28;8845;-85
2022/03/06 02:31:14;;;;;;;;;61.00;50.75;;;;;4.61;55.20;99329.53;5005458;28;8864;-84
2022/03/06 02:33:43;;;;;;;;;60.50;49.00;;;;;4.41;55.96;99340.31;5008393;28;8902;-85
2022/03/06 02:36:12;;;;;;;;;56.50;48.50;;;;;4.63;55.36;99328.72;5003479;28;8848;-85
2022/03/06 02:38:42;;;;;;;;;57.75;45.50;;;;;4.29;55.88;99340.94;5014220;28;8976;-84
2022/03/06 02:41:11;;;;;;;;;57.00;49.00;;;;;4.22;56.15;99331.31;5013781;28;8942;-87
2022/03/06 02:43:40;;;;;;;;;58.75;49.75;;;;;4.29;56.59;99335.78;4996852;28;8961;-84
2022/03/06 02:46:09;;;;;;;;;66.00;50.00;;;;;4.24;56.57;99337.38;5013032;28;8844;-84
2022/03/06 02:48:38;;;;;;;;;67.25;52.25;;;;;4.26;56.67;99335.72;5008762;28;8870;-81
2022/03/06 02:51:06;;;;;;;;;64.75;49.75;;;;;4.28;56.33;99325.41;4992813;28;8854;-81
2022/03/06 02:53:35;;;;;;;;;59.50;49.00;;;;;4.34;56.81;99333.28;4976291;28;8989;-80
2022/03/06 02:56:07;;;;;;;;;65.50;53.00;;;;;4.26;56.99;99329.69;4975795;28;8924;-83
2022/03/06 02:58:36;;;;;;;;;67.75;50.00;;;;;4.25;57.33;99330.50;4979374;28;8912;-80
2022/03/06 03:01:05;;;;;;;;;54.00;47.25;;;;;4.18;57.33;99337.25;4954909;28;8868;-81
2022/03/06 03:03:39;;;;;;;;;54.25;46.75;;;;;4.24;57.70;99339.09;4952882;28;8867;-83
2022/03/06 03:06:08;;;;;;;;;64.25;51.25;;;;;4.04;58.95;99331.78;4969007;28;8871;-80
2022/03/06 03:08:37;;;;;;;;;66.75;51.00;;;;;3.99;59.51;99329.94;4965863;28;8862;-83
2022/03/06 03:11:07;;;;;;;;;60.00;47.00;;;;;4.19;58.97;99346.72;4949116;28;9001;-84
2022/03/06 03:13:36;;;;;;;;;65.75;49.50;;;;;4.00;59.70;99340.28;4949914;28;8924;-82
2022/03/06 03:16:05;;;;;;;;;59.75;49.50;;;;;4.05;59.44;99330.09;4949909;28;8874;-84
2022/03/06 03:18:34;;;;;;;;;50.50;46.00;;;;;4.02;59.73;99315.41;4933958;28;8900;-84
2022/03/06 03:21:03;;;;;;;;;63.00;51.25;;;;;3.97;60.23;99342.81;4949312;28;8869;-83
2022/03/06 03:23:32;;;;;;;;;64.67;51.67;;;;;4.08;60.37;99351.69;4949750;28;8972;-84
2022/03/06 03:26:00;;;;;;;;;61.75;47.25;;;;;3.99;60.78;99325.66;4953073;28;9021;-82
2022/03/06 03:28:31;;;;;;;;;65.50;52.50;;;;;3.83;62.11;99339.03;4953616;28;8879;-82
2022/03/06 03:31:00;;;;;;;;;63.50;48.75;;;;;3.82;62.44;99327.88;4970370;28;9759;-83
2022/03/06 03:33:29;;;;;;;;;59.50;49.25;;;;;3.70;63.23;99354.25;4988129;28;8892;-84
2022/03/06 03:35:57;;;;;;;;;63.25;50.00;;;;;3.73;63.45;99344.84;4956782;28;8976;-81
2022/03/06 03:38:27;;;;;;;;;62.00;52.50;;;;;3.84;63.59;99351.13;4972383;28;8864;-82
2022/03/06 03:40:55;;;;;;;;;62.25;49.25;;;;;3.84;63.54;99344.25;4991604;28;8993;-81
2022/03/06 03:43:24;;;;;;;;;68.75;55.00;;;;;3.76;64.64;99348.31;4992892;28;8870;-81
2022/03/06 03:45:57;;;;;;;;;65.50;53.00;;;;;3.78;64.90;99338.06;5009810;28;8870;-83
2022/03/06 03:48:27;;;;;;;;;62.50;50.50;;;;;3.74;65.11;99356.88;4963068;28;8850;-80
2022/03/06 03:50:57;;;;;;;;;69.75;54.00;;;;;3.84;64.99;99339.09;4994131;28;8847;-83
2022/03/06 03:53:26;;;;;;;;;64.25;52.50;;;;;3.69;64.95;99341.31;4982876;28;8854;-82
2022/03/06 03:55:55;;;;;;;;;64.67;50.67;;;;;3.71;65.02;99340.50;4997873;28;9580;-81
2022/03/06 03:58:24;;;;;;;;;64.00;51.75;;;;;3.57;66.02;99357.34;5011432;28;8976;-82
2022/03/06 04:00:54;;;;;;;;;69.50;54.50;;;;;3.58;65.87;99353.06;5008872;28;8865;-80
2022/03/06 04:03:23;;;;;;;;;62.00;50.75;;;;;3.43;66.66;99346.69;4988491;28;8848;-82
2022/03/06 04:05:52;;;;;;;;;61.00;50.75;;;;;3.40;66.57;99336.28;4968657;28;8855;-82
2022/03/06 04:08:21;;;;;;;;;66.00;54.50;;;;;3.44;66.84;99338.16;4984421;28;8879;-82
2022/03/06 04:10:50;;;;;;;;;59.25;49.75;;;;;3.53;67.05;99339.19;4987314;28;8872;-79
2022/03/06 04:13:19;;;;;;;;;65.25;52.50;;;;;3.37;67.41;99350.84;4984550;28;8837;-81
2022/03/06 04:15:48;;;;;;;;;60.00;50.75;;;;;3.33;67.39;99339.59;4987920;28;8979;-81
2022/03/06 04:18:18;;;;;;;;;69.75;53.25;;;;;3.30;67.51;99326.59;4954884;28;8868;-84
2022/03/06 04:20:47;;;;;;;;;67.00;52.25;;;;;3.26;68.30;99347.97;4971036;28;9669;-82
2022/03/06 04:23:16;;;;;;;;;63.75;48.25;;;;;3.40;67.33;99353.47;4960189;28;9741;-80
2022/03/06 04:25:44;;;;;;;;;52.75;44.75;;;;;3.32;67.38;99333.53;4964576;28;8868;-80
2022/03/06 04:28:13;;;;;;;;;62.75;52.75;;;;;3.44;67.62;99352.72;5000491;28;8908;-82
2022/03/06 04:30:42;;;;;;;;;67.00;54.00;;;;;3.44;68.26;99347.56;4979203;28;8857;-83
2022/03/06 04:33:11;;;;;;;;;68.25;53.00;;;;;3.51;68.23;99352.03;4965846;28;8991;-83
2022/03/06 04:35:41;;;;;;;;;59.75;49.25;;;;;3.37;68.48;99348.25;4994240;28;8855;-84
2022/03/06 04:38:10;;;;;;;;;62.25;48.25;;;;;3.50;68.19;99351.19;4995476;28;8866;-84
2022/03/06 04:40:39;;;;;;;;;62.50;48.50;;;;;3.71;66.58;99343.09;4991885;28;8862;-86
2022/03/06 04:43:08;;;;;;;;;64.50;52.25;;;;;3.77;65.40;99347.50;4983880;28;8884;-83
2022/03/06 04:45:37;;;;;;;;;64.00;52.50;;;;;3.75;66.17;99336.28;4991369;28;8858;-84
2022/03/06 04:48:06;;;;;;;;;67.50;52.50;;;;;3.67;65.93;99345.56;4992175;28;8957;-84
2022/03/06 04:50:35;;;;;;;;;63.50;50.75;;;;;3.71;65.35;99339.63;4994737;28;8860;-81
2022/03/06 04:53:05;;;;;;;;;63.25;49.75;;;;;3.78;64.73;99327.75;4997776;28;8896;-81
2022/03/06 04:55:34;;;;;;;;;52.50;43.50;;;;;3.69;64.55;99325.84;5010123;28;8849;-82
2022/03/06 04:58:03;;;;;;;;;63.75;50.50;;;;;3.65;63.63;99339.50;5012175;28;8876;-82
2022/03/06 05:00:32;;;;;;;;;67.50;51.50;;;;;3.81;62.64;99323.53;4955645;28;8868;-83
2022/03/06 05:03:01;;;;;;;;;64.50;49.50;;;;;3.73;62.58;99335.38;4981666;28;8889;-82
2022/03/06 05:05:30;;;;;;;;;64.75;49.75;;;;;3.70;62.31;99337.88;5011793;28;9000;-82
2022/03/06 05:07:59;;;;;;;;;59.00;49.75;;;;;3.78;62.44;99344.13;4998226;28;8936;-84
2022/03/06 05:10:30;;;;;;;;;62.25;51.75;;;;;3.61;62.23;99338.56;5015268;28;8874;-82
2022/03/06 05:12:59;;;;;;;;;64.00;52.25;;;;;3.78;62.22;99325.16;4954040;28;8983;-83
2022/03/06 05:15:28;;;;;;;;;57.25;49.00;;;;;3.84;61.76;99325.31;4970076;28;8956;-82
2022/03/06 05:17:57;;;;;;;;;59.75;47.25;;;;;3.90;61.91;99346.09;4934143;28;8967;-82
2022/03/06 05:20:26;;;;;;;;;35.00;24.25;;;;;4.02;61.70;99324.84;4938833;28;8855;-83
2022/03/06 05:22:55;;;;;;;;;47.25;37.75;;;;;4.00;61.30;99340.28;4990430;28;8849;-82
2022/03/06 05:25:23;;;;;;;;;52.25;46.25;;;;;3.81;61.26;99332.97;4973382;28;8992;-83
2022/03/06 05:27:54;;;;;;;;;61.00;47.75;;;;;3.95;61.06;99325.53;4957542;28;8869;-81
2022/03/06 05:30:23;;;;;;;;;49.50;41.75;;;;;3.86;60.86;99344.28;4988480;28;8975;-84
2022/03/06 05:32:52;;;;;;;;;59.00;48.75;;;;;3.89;60.44;99340.06;4969679;28;8871;-84
2022/03/06 05:35:21;;;;;;;;;59.50;46.50;;;;;3.86;60.42;99331.38;4970904;28;8981;-84
2022/03/06 05:37:49;;;;;;;;;46.25;42.00;;;;;3.81;61.12;99336.44;4972946;28;8861;-83
2022/03/06 05:40:18;;;;;;;;;60.50;46.25;;;;;3.85;60.47;99339.94;4973578;28;8885;-85
2022/03/06 05:42:49;;;;;;;;;53.00;43.50;;;;;3.81;60.58;99351.03;4957418;28;8889;-84
2022/03/06 05:45:29;;;;;;;;;45.50;41.00;;;;;3.83;60.85;99339.03;4989991;28;8979;-86
2022/03/06 05:47:58;;;;;;;;;53.50;45.50;;;;;3.76;61.58;99350.91;5001366;28;9667;-84
2022/03/06 05:50:27;;;;;;;;;48.25;42.50;;;;;3.74;61.79;99336.25;4988816;28;8931;-83
2022/03/06 05:52:55;;;;;;;;;43.00;37.75;;;;;3.69;62.13;99346.47;4981293;28;8858;-83
2022/03/06 05:55:26;;;;;;;;;60.75;44.25;;;;;3.64;62.27;99354.06;5012910;28;9749;-84
2022/03/06 05:57:55;;;;;;;;;50.50;44.50;;;;;3.66;62.25;99361.84;4992978;28;8978;-85
2022/03/06 06:00:24;;;;;;;;;41.25;35.50;;;;;3.67;62.63;99345.56;5001912;28;8907;-86
2022/03/06 06:02:54;;;;;;;;;45.75;37.00;;;;;3.54;62.32;99366.72;5024249;28;8908;-86
2022/03/06 06:05:24;;;;;;;;;48.00;43.25;;;;;3.70;61.87;99366.25;5004135;28;8866;-83
2022/03/06 06:07:53;;;;;;;;;46.00;42.75;;;;;3.70;61.03;99359.41;4991753;28;8878;-84
2022/03/06 06:10:22;;;;;;;;;42.00;37.25;;;;;3.51;62.02;99337.44;4993751;28;8851;-85
2022/03/06 06:12:51;;;;;;;;;48.75;42.50;;;;;3.57;61.79;99357.34;4966862;28;8896;-83
2022/03/06 06:15:19;;;;;;;;;40.75;36.75;;;;;3.39;61.90;99367.22;5006826;28;8931;-85
2022/03/06 06:17:48;;;;;;;;;39.75;36.75;;;;;3.39;62.51;99356.91;5012482;28;8992;-85
2022/03/06 06:20:18;;;;;;;;;38.00;37.25;;;;;3.30;63.17;99360.97;5006185;28;8891;-84
2022/03/06 06:22:48;;;;;;;;;41.25;36.00;;;;;3.29;63.06;99408.22;4990177;28;8873;-84
2022/03/06 06:25:16;;;;;;;;;39.00;35.50;;;;;3.31;63.89;99370.47;4996534;28;8969;-87
2022/03/06 06:27:45;;;;;;;;;51.75;43.75;;;;;3.28;63.69;99370.38;5011924;28;8834;-84
2022/03/06 06:30:15;;;;;;;;;52.00;43.50;;;;;3.42;63.54;99388.78;5011891;28;8858;-84
2022/03/06 06:32:44;;;;;;;;;45.25;42.00;;;;;3.44;63.20;99376.81;5012666;28;8843;-83
2022/03/06 06:35:12;;;;;;;;;39.50;37.00;;;;;3.49;63.96;99380.34;4995440;28;10012;-86
2022/03/06 06:37:43;;;;;;;;;44.50;39.25;;;;;3.58;64.72;99387.44;4995420;28;8846;-82
2022/03/06 06:40:12;;;;;;;;;40.00;37.25;;;;;3.49;65.74;99395.81;4994911;28;9447;-85
2022/03/06 06:42:42;;;;;;;;;47.25;40.75;;;;;3.24;65.93;99372.84;4974535;28;8830;-82
2022/03/06 06:45:14;;;;;;;;;41.25;36.25;;;;;3.28;66.63;99384.97;5010724;28;8857;-83
2022/03/06 06:47:43;;;;;;;;;39.25;36.75;;;;;3.32;66.24;99376.47;4981454;28;8865;-83
2022/03/06 06:50:12;;;;;;;;;46.75;42.75;;;;;3.36;65.46;99374.84;4993218;28;8877;-85
2022/03/06 06:52:43;;;;;;;;;44.50;40.75;;;;;3.35;65.30;99381.72;5031501;28;8964;-85
2022/03/06 06:55:12;;;;;;;;;45.00;41.50;;;;;3.29;65.62;99379.00;5013859;28;8985;-83
2022/03/06 06:57:41;;;;;;;;;43.75;39.75;;;;;3.27;66.23;99391.84;5061335;28;8842;-85
2022/03/06 07:00:10;;;;;;;;;35.50;31.50;;;;;3.22;66.48;99397.69;5012386;28;8881;-82
2022/03/06 07:02:39;;;;;;;;;43.25;35.50;;;;;3.24;65.95;99403.75;5012964;28;8978;-84
2022/03/06 07:05:09;;;;;;;;;39.50;35.25;;;;;3.09;66.62;99407.66;5009620;28;8841;-75
2022/03/06 07:07:38;;;;;;;;;38.00;37.00;;;;;3.04;67.73;99404.06;5014198;28;8856;-76
2022/03/06 07:10:10;;;;;;;;;36.75;35.50;;;;;3.07;68.04;99414.47;5013209;28;8971;-76
2022/03/06 07:12:43;;;;;;;;;41.00;37.00;;;;;3.18;67.65;99416.50;5029054;28;8876;-74
2022/03/06 07:15:13;;;;;;;;;45.00;38.00;;;;;3.19;67.41;99423.38;4964610;28;8866;-76
2022/03/06 07:17:42;;;;;;;;;47.50;38.75;;;;;3.28;66.41;99416.75;5004941;28;8880;-76
2022/03/06 07:20:12;;;;;;;;;33.50;33.25;;;;;3.36;65.92;99426.41;4987751;28;8839;-74
2022/03/06 07:22:41;;;;;;;;;39.25;33.25;;;;;3.41;65.65;99417.09;5003609;28;8901;-74
2022/03/06 07:25:11;;;;;;;;;48.75;40.50;;;;;3.33;65.38;99427.19;4950939;28;8943;-74
2022/03/06 07:27:40;;;;;;;;;45.00;41.00;;;;;3.34;65.34;99428.06;4967162;28;8856;-74
2022/03/06 07:30:10;;;;;;;;;47.75;44.50;;;;;3.36;65.70;99426.41;4967173;28;8906;-73
2022/03/06 07:32:41;;;;;;;;;41.25;38.00;;;;;3.57;64.51;99433.81;4967126;28;8890;-75
2022/03/06 07:35:11;;;;;;;;;46.50;43.25;;;;;3.58;64.28;99409.78;4952634;28;8874;-75
2022/03/06 07:37:40;;;;;;;;;40.25;37.50;;;;;3.41;64.74;99420.53;4904052;28;8875;-74
2022/03/06 07:40:12;;;;;;;;;43.50;41.75;;;;;3.49;64.35;99423.31;4950448;28;8886;-73
2022/03/06 07:42:42;;;;;;;;;38.00;36.25;;;;;3.31;65.75;99415.97;4935109;28;10933;-74
2022/03/06 07:45:11;;;;;;;;;44.75;40.25;;;;;3.23;65.95;99420.94;4904346;28;8844;-76
2022/03/06 07:47:40;;;;;;;;;39.00;33.25;;;;;3.32;66.42;99434.03;4951376;28;9712;-76
2022/03/06 07:50:11;;;;;;;;;43.75;39.00;;;;;3.32;66.43;99439.19;4966907;28;9605;-74
2022/03/06 07:52:40;;;;;;;;;36.50;34.25;;;;;3.24;66.26;99445.84;4966444;28;9617;-75
2022/03/06 07:55:11;;;;;;;;;40.25;37.00;;;;;3.22;65.96;99436.34;4972735;28;9074;-76
2022/03/06 07:57:40;;;;;;;;;41.75;35.00;;;;;3.17;65.46;99446.50;4986905;28;8958;-75
2022/03/06 08:00:11;;;;;;;;;39.50;35.50;;;;;3.09;65.29;99422.25;5004596;28;9003;-75
2022/03/06 08:02:41;;;;;;;;;38.75;32.75;;;;;3.08;63.84;99421.38;4986155;28;8873;-75
2022/03/06 08:05:10;;;;;;;;;37.25;29.50;;;;;3.03;63.82;99425.53;4938712;28;8957;-77
2022/03/06 08:07:39;;;;;;;;;30.00;30.00;;;;;2.95;64.24;99437.34;4996572;28;8861;-76
2022/03/06 08:10:08;;;;;;;;;40.75;35.50;;;;;3.11;64.99;99449.78;5021491;28;9628;-75
2022/03/06 08:12:40;;;;;;;;;41.50;38.75;;;;;2.90;66.12;99437.19;5003231;28;8885;-75
2022/03/06 08:15:10;;;;;;;;;37.50;32.50;;;;;3.01;66.94;99450.38;5001959;28;8879;-75
2022/03/06 08:17:39;;;;;;;;;28.50;27.25;;;;;2.87;68.06;99456.81;5004721;28;8965;-75
2022/03/06 08:20:09;;;;;;;;;35.00;30.75;;;;;2.84;69.01;99451.59;4984837;28;8967;-76
2022/03/06 08:22:38;;;;;;;;;34.00;28.75;;;;;2.91;69.87;99448.34;4940154;28;9009;-75
2022/03/06 08:25:08;;;;;;;;;34.50;30.25;;;;;2.84;70.27;99447.31;4966414;28;8871;-75
2022/03/06 08:27:38;;;;;;;;;47.00;34.00;;;;;2.79;70.50;99441.16;4987308;28;8874;-75
2022/03/06 08:30:08;;;;;;;;;39.50;32.25;;;;;2.90;69.31;99451.78;4971830;28;8984;-76
2022/03/06 08:32:38;;;;;;;;;33.25;30.50;;;;;2.92;69.37;99444.97;4971704;28;8873;-75
2022/03/06 08:35:07;;;;;;;;;38.75;36.00;;;;;3.01;68.89;99452.09;5000806;28;8874;-74
2022/03/06 08:37:36;;;;;;;;;45.75;35.50;;;;;2.95;68.18;99437.34;4988867;28;8894;-74
2022/03/06 08:40:06;;;;;;;;;36.00;31.75;;;;;2.85;68.99;99459.34;4987663;28;8851;-76
2022/03/06 08:42:35;;;;;;;;;33.50;26.00;;;;;2.88;69.04;99450.88;4947618;28;8869;-75
2022/03/06 08:45:07;;;;;;;;;41.50;32.25;;;;;2.69;69.45;99447.75;4945194;28;8871;-75
2022/03/06 08:47:36;;;;;;;;;34.75;30.75;;;;;2.71;69.60;99438.38;4929801;29;8876;-76
2022/03/06 08:50:05;;;;;;;;;27.75;27.75;;;;;2.60;68.61;99426.03;4923333;29;8883;-76
2022/03/06 08:52:34;;;;;;;;;32.50;30.25;;;;;2.62;69.02;99444.94;4925746;29;8849;-74
2022/03/06 08:55:04;;;;;;;;;31.75;30.75;;;;;2.74;68.71;99447.88;4908645;29;8958;-74
2022/03/06 08:57:32;;;;;;;;;37.50;32.00;;;;;2.77;68.49;99447.97;4893442;29;8894;-73
2022/03/06 09:00:01;;;;;;;;;38.25;34.75;;;;;2.73;69.16;99452.16;4923866;29;9000;-76
2022/03/06 09:02:32;;;;;;;;;35.50;35.25;;;;;3.01;68.49;99460.69;4894047;29;8873;-75
2022/03/06 09:05:00;;;;;;;;;38.50;34.00;;;;;3.08;68.42;99454.88;4923154;29;8907;-77
2022/03/06 09:07:29;;;;;;;;;37.50;30.75;;;;;3.01;69.30;99459.81;4878074;29;9007;-76
2022/03/06 09:10:01;;;;;;;;;34.50;28.50;;;;;2.96;68.49;99453.66;4907844;29;9086;-75
2022/03/06 09:12:39;;;;;;;;;38.50;30.25;;;;;2.88;69.54;99466.31;4930784;28;8900;-74
2022/03/06 09:15:08;;;;;;;;;33.50;29.50;;;;;2.84;69.57;99459.34;4951924;28;8996;-75
2022/03/06 09:17:39;;;;;;;;;31.75;30.25;;;;;2.86;70.94;99449.94;4965750;28;8866;-76
2022/03/06 09:20:10;;;;;;;;;26.75;26.75;;;;;2.78;71.23;99454.88;4950935;28;8962;-74
2022/03/06 09:22:38;;;;;;;;;37.00;37.00;;;;;2.85;70.76;99464.50;4951725;28;8989;-75
2022/03/06 09:25:07;;;;;;;;;38.50;34.75;;;;;2.86;71.12;99463.69;4938109;28;8979;-76
2022/03/06 09:27:36;;;;;;;;;42.25;36.75;;;;;2.96;70.51;99459.66;5015062;28;8995;-76
2022/03/06 09:30:07;;;;;;;;;62.00;51.00;;;;;2.97;70.26;99443.41;4974655;28;8864;-76
2022/03/06 09:32:38;;;;;;;;;44.00;36.25;;;;;3.01;69.51;99460.69;4960863;28;8896;-77
2022/03/06 09:35:09;;;;;;;;;38.75;37.75;;;;;3.13;68.69;99467.88;4993014;28;9008;-78
2022/03/06 09:37:43;;;;;;;;;37.25;34.25;;;;;2.96;68.60;99456.22;5025276;28;8869;-76
2022/03/06 09:40:12;;;;;;;;;38.25;35.75;;;;;2.85;68.29;99455.91;5009398;28;8866;-74
2022/03/06 09:42:42;;;;;;;;;34.50;32.25;;;;;2.95;67.58;99457.94;5024585;28;8854;-73
2022/03/06 09:45:12;;;;;;;;;39.75;35.00;;;;;3.09;67.71;99466.06;5009251;28;8893;-77
2022/03/06 09:47:45;;;;;;;;;33.00;27.75;;;;;3.04;67.13;99465.03;5009519;28;8978;-76
2022/03/06 09:50:14;;;;;;;;;40.25;36.25;;;;;3.21;67.29;99457.78;4959510;28;8874;-74
2022/03/06 09:52:44;;;;;;;;;45.00;38.50;;;;;3.37;67.09;99454.78;5009061;28;8850;-77
2022/03/06 09:55:13;;;;;;;;;41.00;37.50;;;;;3.47;67.17;99467.09;5008801;28;8873;-75
2022/03/06 09:57:42;;;;;;;;;43.00;39.50;;;;;3.66;66.00;99465.00;5007943;28;8984;-74
2022/03/06 10:00:11;;;;;;;;;43.50;35.00;;;;;3.80;65.62;99445.59;4992794;28;8901;-74
2022/03/06 10:02:57;;;;;;;;;32.00;28.00;;;;;3.63;64.74;99454.59;5030691;28;8850;-74
2022/03/06 10:05:31;;;;;;;;;35.00;28.00;;;;;3.53;64.29;99450.91;5010106;28;8881;-75
2022/03/06 10:08:21;;;;;;;;;38.50;33.00;;;;;3.73;63.72;99445.41;5023206;28;8953;-75
2022/03/06 10:10:52;;;;;;;;;29.25;27.50;;;;;3.62;63.61;99450.28;4993236;28;8874;-76
2022/03/06 10:13:23;;;;;;;;;43.00;38.50;;;;;3.57;64.34;99459.59;5007753;28;8940;-74
2022/03/06 10:16:14;;;;;;;;;35.50;30.00;;;;;3.42;65.79;99463.53;5008358;28;8854;-74
2022/03/06 10:18:47;;;;;;;;;40.00;33.00;;;;;3.39;66.30;99463.44;4961259;28;8866;-74
2022/03/06 10:21:21;;;;;;;;;39.50;35.50;;;;;3.10;67.22;99462.63;4964359;28;8851;-76
2022/03/06 10:23:53;;;;;;;;;38.00;32.00;;;;;3.15;67.78;99468.78;4951405;28;8840;-75
2022/03/06 10:26:23;;;;;;;;;43.00;34.50;;;;;3.04;66.83;99452.16;4889133;28;9052;-75
2022/03/06 10:28:55;;;;;;;;;24.50;24.50;;;;;3.02;67.72;99443.50;4904195;28;8997;-76
2022/03/06 10:31:26;;;;;;;;;43.50;38.75;;;;;3.10;67.59;99460.94;4949530;28;8879;-76
2022/03/06 10:34:05;;;;;;;;;41.50;36.75;;;;;3.23;67.69;99474.16;4969575;28;8887;-74
2022/03/06 10:36:37;;;;;;;;;34.50;33.25;;;;;3.01;68.26;99455.53;4948394;28;8871;-75
2022/03/06 10:39:11;;;;;;;;;37.25;32.75;;;;;3.13;68.35;99447.25;4956167;28;9100;-74
2022/03/06 10:41:42;;;;;;;;;36.00;35.50;;;;;3.25;67.99;99475.06;4938200;28;9649;-74
2022/03/06 10:44:12;;;;;;;;;36.00;34.00;;;;;3.10;68.24;99436.88;4947549;28;8944;-78
2022/03/06 10:46:42;;;;;;;;;66.25;50.25;;;;;3.06;69.33;99464.28;4932526;28;8898;-76
2022/03/06 10:49:17;;;;;;;;;37.25;32.75;;;;;3.04;68.93;99460.75;4914513;28;8878;-76
2022/03/06 10:51:47;;;;;;;;;33.75;32.25;;;;;3.16;69.51;99449.03;4949746;28;8867;-73
2022/03/06 10:54:16;;;;;;;;;42.75;37.25;;;;;3.18;68.40;99444.84;4932585;28;8881;-75
2022/03/06 10:56:49;;;;;;;;;36.75;33.00;;;;;3.11;69.26;99442.06;5000198;28;8830;-74
2022/03/06 10:59:21;;;;;;;;;38.00;33.75;;;;;3.12;69.35;99453.25;5006964;28;8971;-76
2022/03/06 11:01:50;;;;;;;;;36.50;30.75;;;;;3.08;69.75;99443.69;4980000;28;12465;-74
2022/03/06 11:04:21;;;;;;;;;29.75;29.75;;;;;2.99;69.96;99426.28;5012253;28;8882;-74
2022/03/06 11:06:51;;;;;;;;;30.50;29.00;;;;;2.92;70.85;99438.09;5034810;28;8847;-73
2022/03/06 11:09:21;;;;;;;;;32.75;30.00;;;;;2.91;70.94;99441.53;4989714;28;8890;-74
2022/03/06 11:11:52;;;;;;;;;34.50;29.25;;;;;2.77;71.66;99444.53;4993110;28;8867;-74
2022/03/06 11:14:20;;;;;;;;;34.50;33.50;;;;;2.89;71.82;99452.59;5008503;28;8924;-73
2022/03/06 11:16:50;;;;;;;;;29.25;27.50;;;;;2.91;70.39;99438.94;5010949;28;8847;-74
2022/03/06 11:19:20;;;;;;;;;30.00;29.75;;;;;3.02;71.04;99436.66;4943572;28;9640;-75
2022/03/06 11:21:55;;;;;;;;;33.25;29.50;;;;;2.86;71.14;99437.06;4969552;28;8924;-73
2022/03/06 11:24:28;;;;;;;;;33.50;30.50;;;;;2.84;71.44;99443.88;4986040;28;8931;-75
2022/03/06 11:27:20;;;;;;;;;38.25;35.00;;;;;2.85;71.59;99453.34;4971282;28;8984;-74
2022/03/06 11:30:06;;;;;;;;;31.75;31.75;;;;;2.91;71.18;99445.78;5003030;28;9805;-74
2022/03/06 11:32:36;;;;;;;;;37.25;35.50;;;;;3.03;71.59;99445.28;4942356;28;8862;-74
2022/03/06 11:35:11;;;;;;;;;39.75;38.00;;;;;3.19;71.08;99438.84;4989042;28;8874;-73
2022/03/06 11:37:53;;;;;;;;;40.25;38.50;;;;;3.34;70.82;99435.78;5005540;28;8858;-74
2022/03/06 11:40:44;;;;;;;;;39.50;32.50;;;;;3.44;70.00;99425.78;4995684;28;8878;-75
2022/03/06 11:43:31;;;;;;;;;39.25;32.25;;;;;3.40;69.95;99435.94;4990245;28;8870;-74
2022/03/06 11:46:16;;;;;;;;;29.00;25.75;;;;;3.28;70.15;99433.94;5005780;28;8988;-74
2022/03/06 11:49:06;;;;;;;;;32.00;31.75;;;;;3.15;70.43;99427.56;4988573;28;8850;-75